Time;durP1;ratioP1;P1;durP2;ratioP2;P2;SDS_P1;SDS_P2;PMS_P1;PMS_P2;Temp;Humidity;BMP_temperature;BMP_pressure;BME280_temperature;BME280_humidity;BME280_pressure;Samples;Min_cycle;Max_cycle;Signal;HPM_P1;HPM_P2
2023/05/28 00:00:42;;;;;;;;;;;;;;;18.61;51.05;100090.12;4362269;32;33694;-80
2023/05/28 00:03:11;;;;;;;;;;;;;;;18.46;51.20;100091.22;4356362;32;33939;-80
2023/05/28 00:05:38;;;;;;;;;;;;;;;18.52;51.62;100090.78;4356787;32;34765;-81
2023/05/28 00:08:11;;;;;;;;;;;;;;;18.52;51.62;100089.94;4361711;32;34080;-80
2023/05/28 00:10:41;;;;;;;;;;;;;;;18.65;51.11;100080.03;4353087;32;34166;-80
2023/05/28 00:13:09;;;;;;;;;;;;;;;18.47;51.53;100086.72;4356152;32;34818;-81
2023/05/28 00:15:37;;;;;;;;;;;;;;;18.56;51.30;100089.59;4356767;32;34020;-81
2023/05/28 00:18:05;;;;;;;;;;;;;;;18.32;51.75;100086.00;4348024;32;33454;-80
2023/05/28 00:20:33;;;;;;;;;;;;;;;18.70;50.65;100096.62;4355966;32;33447;-80
2023/05/28 00:23:00;;;;;;;;;;;;;;;18.30;51.70;100085.25;4357328;32;34914;-80
2023/05/28 00:25:28;;;;;;;;;;;;;;;18.24;51.65;100094.56;4357304;32;34169;-80
2023/05/28 00:27:56;;;;;;;;;;;;;;;18.25;51.61;100088.25;4360925;32;34635;-81
2023/05/28 00:30:24;;;;;;;;;;;;;;;18.18;51.52;100086.97;4352168;32;33913;-81
2023/05/28 00:32:54;;;;;;;;;;;;;;;18.10;51.98;100086.69;4353346;32;33818;-81
2023/05/28 00:35:22;;;;;;;;;;;;;;;17.82;53.17;100075.25;4354732;32;34341;-80
2023/05/28 00:37:52;;;;;;;;;;;;;;;17.95;52.97;100077.94;4355621;32;34409;-81
2023/05/28 00:40:21;;;;;;;;;;;;;;;18.02;52.83;100079.19;4355268;32;33320;-81
2023/05/28 00:42:51;;;;;;;;;;;;;;;17.78;52.49;100079.09;4356168;32;34819;-81
2023/05/28 00:45:18;;;;;;;;;;;;;;;18.05;50.92;100078.97;4335728;32;33429;-81
2023/05/28 00:47:46;;;;;;;;;;;;;;;18.31;49.69;100068.25;4355826;32;33459;-81
2023/05/28 00:50:16;;;;;;;;;;;;;;;18.29;50.38;100068.38;4329722;32;32375;-82
2023/05/28 00:52:45;;;;;;;;;;;;;;;18.06;51.35;100067.31;4356447;32;33813;-82
2023/05/28 00:55:15;;;;;;;;;;;;;;;17.65;52.68;100057.66;4348521;32;33821;-81
2023/05/28 00:57:43;;;;;;;;;;;;;;;17.77;51.83;100060.50;4356803;32;34265;-81
2023/05/28 01:00:11;;;;;;;;;;;;;;;17.83;51.56;100060.06;4355933;32;33100;-81
2023/05/28 01:02:38;;;;;;;;;;;;;;;17.87;51.21;100058.91;4367224;32;33298;-81
2023/05/28 01:05:07;;;;;;;;;;;;;;;17.01;50.89;100056.69;4368956;32;33340;-80
2023/05/28 01:07:35;;;;;;;;;;;;;;;17.58;50.56;100053.72;4368797;32;34216;-81
2023/05/28 01:10:03;;;;;;;;;;;;;;;17.69;50.76;100052.12;4356691;32;33196;-81
2023/05/28 01:12:31;;;;;;;;;;;;;;;17.89;50.14;100048.94;4367307;32;33668;-81
2023/05/28 01:15:00;;;;;;;;;;;;;;;17.70;50.77;100053.81;4367378;32;33937;-81
2023/05/28 01:17:28;;;;;;;;;;;;;;;17.70;50.57;100051.16;4343521;32;33068;-81
2023/05/28 01:19:57;;;;;;;;;;;;;;;17.64;50.29;100049.78;4354564;32;32511;-81
2023/05/28 01:22:27;;;;;;;;;;;;;;;17.67;50.90;100044.22;4369285;32;34283;-80
2023/05/28 01:24:55;;;;;;;;;;;;;;;17.67;50.99;100047.75;4366162;32;34658;-81
2023/05/28 01:27:23;;;;;;;;;;;;;;;17.57;50.96;100037.81;4360138;32;34434;-81
2023/05/28 01:29:50;;;;;;;;;;;;;;;17.77;50.75;100041.81;4367275;32;33406;-81
2023/05/28 01:32:19;;;;;;;;;;;;;;;17.45;51.45;100039.50;4354838;32;34098;-81
2023/05/28 01:34:47;;;;;;;;;;;;;;;17.46;51.71;100043.03;4355425;32;33804;-80
2023/05/28 01:37:16;;;;;;;;;;;;;;;17.48;51.45;100038.44;4354804;32;34178;-81
2023/05/28 01:39:45;;;;;;;;;;;;;;;17.13;52.65;100042.53;4369778;32;32998;-80
2023/05/28 01:42:15;;;;;;;;;;;;;;;17.13;51.45;100039.00;4367605;32;34118;-80
2023/05/28 01:44:43;;;;;;;;;;;;;;;17.63;49.49;100038.25;4362931;32;34167;-81
2023/05/28 01:47:12;;;;;;;;;;;;;;;17.24;51.04;100040.97;4368522;32;34271;-81
2023/05/28 01:49:42;;;;;;;;;;;;;;;17.19;51.54;100033.28;4369510;32;33570;-81
2023/05/28 01:52:12;;;;;;;;;;;;;;;17.08;52.14;100041.97;4367586;32;34796;-81
2023/05/28 01:54:40;;;;;;;;;;;;;;;17.26;51.75;100033.69;4368958;32;34173;-81
2023/05/28 01:57:08;;;;;;;;;;;;;;;17.22;51.65;100029.53;4368648;32;34298;-81
2023/05/28 01:59:35;;;;;;;;;;;;;;;17.27;51.19;100030.06;4367693;32;33211;-81
2023/05/28 02:02:05;;;;;;;;;;;;;;;17.12;51.63;100037.31;4368874;32;34650;-80
2023/05/28 02:04:35;;;;;;;;;;;;;;;17.12;51.33;100034.63;4368110;32;35119;-80
2023/05/28 02:07:03;;;;;;;;;;;;;;;17.09;51.92;100033.03;4368114;32;34043;-80
2023/05/28 02:09:31;;;;;;;;;;;;;;;17.27;51.09;100032.75;4365769;32;33246;-80
2023/05/28 02:12:02;;;;;;;;;;;;;;;17.08;51.70;100036.63;4348462;32;33846;-80
2023/05/28 02:14:30;;;;;;;;;;;;;;;17.11;51.40;100030.25;4367231;32;34900;-80
2023/05/28 02:16:58;;;;;;;;;;;;;;;17.18;50.93;100025.34;4354420;32;33291;-80
2023/05/28 02:19:27;;;;;;;;;;;;;;;16.99;51.82;100031.91;4366326;32;33363;-80
2023/05/28 02:21:55;;;;;;;;;;;;;;;17.02;51.19;100025.53;4366229;32;33681;-80
2023/05/28 02:24:25;;;;;;;;;;;;;;;16.93;51.80;100040.34;4369757;32;34394;-80
2023/05/28 02:26:53;;;;;;;;;;;;;;;16.88;51.84;100023.78;4378968;32;34473;-80
2023/05/28 02:29:23;;;;;;;;;;;;;;;16.77;51.80;100031.66;4368245;32;33492;-80
2023/05/28 02:31:57;;;;;;;;;;;;;;;16.82;51.58;100030.37;4370881;32;34605;-80
2023/05/28 02:34:25;;;;;;;;;;;;;;;16.52;52.89;100029.66;4353655;32;33040;-80
2023/05/28 02:36:52;;;;;;;;;;;;;;;16.70;52.73;100032.97;4368433;32;34098;-80
2023/05/28 02:39:20;;;;;;;;;;;;;;;16.82;52.28;100033.06;4367278;32;33159;-80
2023/05/28 02:41:47;;;;;;;;;;;;;;;16.72;52.28;100044.44;4368133;32;34034;-80
2023/05/28 02:44:15;;;;;;;;;;;;;;;16.70;52.41;100035.62;4380467;32;34048;-80
2023/05/28 02:46:44;;;;;;;;;;;;;;;16.70;52.52;100030.28;4369166;32;34110;-81
2023/05/28 02:49:11;;;;;;;;;;;;;;;16.59;53.04;100031.84;4350160;32;33829;-81
2023/05/28 02:51:40;;;;;;;;;;;;;;;16.42;53.54;100032.06;4368679;32;33901;-81
2023/05/28 02:54:08;;;;;;;;;;;;;;;16.25;54.21;100032.31;4354713;32;33546;-81
2023/05/28 02:56:37;;;;;;;;;;;;;;;16.36;54.02;100027.16;4368065;32;33809;-80
2023/05/28 02:59:08;;;;;;;;;;;;;;;16.63;52.68;100036.03;4349806;32;32174;-81
2023/05/28 03:01:36;;;;;;;;;;;;;;;16.59;53.06;100033.66;4366486;32;32670;-81
2023/05/28 03:04:04;;;;;;;;;;;;;;;16.62;52.66;100028.16;4369690;32;33594;-80
2023/05/28 03:06:33;;;;;;;;;;;;;;;16.39;53.20;100035.81;4367033;32;35638;-81
2023/05/28 03:09:01;;;;;;;;;;;;;;;16.42;53.41;100026.75;4370996;32;34252;-80
2023/05/28 03:11:28;;;;;;;;;;;;;;;16.49;53.47;100027.22;4357460;32;34167;-80
2023/05/28 03:13:56;;;;;;;;;;;;;;;16.56;52.90;100034.69;4363445;32;34663;-80
2023/05/28 03:16:26;;;;;;;;;;;;;;;16.49;53.25;100035.22;4356610;32;33607;-80
2023/05/28 03:18:54;;;;;;;;;;;;;;;16.43;53.67;100039.12;4356518;32;32701;-80
2023/05/28 03:21:22;;;;;;;;;;;;;;;16.54;53.29;100030.44;4343002;32;33966;-80
2023/05/28 03:23:50;;;;;;;;;;;;;;;16.34;53.60;100029.91;4342163;32;33165;-81
2023/05/28 03:26:18;;;;;;;;;;;;;;;16.27;54.20;100030.37;4350650;32;35078;-80
2023/05/28 03:28:47;;;;;;;;;;;;;;;16.39;54.20;100032.28;4368150;32;33197;-80
2023/05/28 03:31:16;;;;;;;;;;;;;;;16.39;54.08;100029.63;4369418;32;33960;-80
2023/05/28 03:33:45;;;;;;;;;;;;;;;16.69;53.20;100028.59;4367045;32;33411;-80
2023/05/28 03:36:12;;;;;;;;;;;;;;;16.51;53.53;100038.62;4369674;32;35300;-80
2023/05/28 03:38:42;;;;;;;;;;;;;;;16.51;53.84;100034.16;4367232;32;33170;-80
2023/05/28 03:41:10;;;;;;;;;;;;;;;16.56;53.77;100029.38;4368832;32;34471;-80
2023/05/28 03:43:37;;;;;;;;;;;;;;;16.58;54.17;100032.81;4366123;32;33593;-80
2023/05/28 03:46:07;;;;;;;;;;;;;;;16.74;54.00;100027.34;4369770;32;35110;-80
2023/05/28 03:48:35;;;;;;;;;;;;;;;16.85;53.27;100026.63;4382456;32;32876;-80
2023/05/28 03:51:04;;;;;;;;;;;;;;;16.95;53.14;100033.09;4369614;32;33888;-80
2023/05/28 03:53:32;;;;;;;;;;;;;;;17.31;51.58;100026.25;4366689;32;33865;-80
2023/05/28 03:56:01;;;;;;;;;;;;;;;17.23;52.10;100033.91;4372156;32;34292;-81
2023/05/28 03:58:29;;;;;;;;;;;;;;;17.13;52.35;100028.31;4370144;32;33779;-81
2023/05/28 04:00:56;;;;;;;;;;;;;;;17.13;52.79;100029.19;4367186;32;33803;-81
2023/05/28 04:03:24;;;;;;;;;;;;;;;17.13;52.22;100031.00;4368970;32;34023;-81
2023/05/28 04:05:52;;;;;;;;;;;;;;;17.06;52.57;100035.91;4368286;32;34634;-81
2023/05/28 04:08:23;;;;;;;;;;;;;;;17.40;51.84;100033.63;4370991;32;33290;-81
2023/05/28 04:10:55;;;;;;;;;;;;;;;17.47;52.25;100024.25;4370250;32;33869;-81
2023/05/28 04:13:22;;;;;;;;;;;;;;;17.55;52.32;100024.56;4362304;32;34152;-81
2023/05/28 04:15:52;;;;;;;;;;;;;;;17.37;52.27;100020.47;4368827;32;34236;-81
2023/05/28 04:18:20;;;;;;;;;;;;;;;17.78;51.68;100022.12;4370676;32;33586;-81
2023/05/28 04:20:48;;;;;;;;;;;;;;;17.95;51.41;100027.16;4356458;32;34026;-80
2023/05/28 04:23:16;;;;;;;;;;;;;;;18.00;50.96;100025.03;4356840;32;33889;-80
2023/05/28 04:25:45;;;;;;;;;;;;;;;18.03;50.58;100030.13;4368609;32;33755;-80
2023/05/28 04:28:14;;;;;;;;;;;;;;;18.36;50.59;100026.84;4369063;32;33514;-80
2023/05/28 04:30:42;;;;;;;;;;;;;;;18.44;50.23;100023.63;4367255;32;34476;-80
2023/05/28 04:33:10;;;;;;;;;;;;;;;18.43;50.98;100027.28;4354466;32;33421;-80
2023/05/28 04:35:38;;;;;;;;;;;;;;;18.72;50.56;100021.66;4369491;32;33862;-80
2023/05/28 04:38:06;;;;;;;;;;;;;;;18.69;50.70;100025.41;4363435;32;33040;-80
2023/05/28 04:40:37;;;;;;;;;;;;;;;18.92;49.91;100019.19;4366294;32;34205;-80
2023/05/28 04:43:06;;;;;;;;;;;;;;;18.99;50.17;100019.59;4367290;32;33872;-80
2023/05/28 04:45:37;;;;;;;;;;;;;;;19.12;49.54;100019.50;4369156;32;35223;-80
2023/05/28 04:48:05;;;;;;;;;;;;;;;19.26;48.24;100013.97;4367080;32;33237;-80
2023/05/28 04:50:32;;;;;;;;;;;;;;;19.27;47.55;100022.84;4364880;32;34526;-80
2023/05/28 04:53:01;;;;;;;;;;;;;;;19.31;47.39;100016.28;4367279;32;33727;-80
2023/05/28 04:55:29;;;;;;;;;;;;;;;19.46;46.88;100025.81;4365689;32;34000;-80
2023/05/28 04:57:57;;;;;;;;;;;;;;;19.67;46.67;100026.03;4365880;32;32268;-80
2023/05/28 05:00:27;;;;;;;;;;;;;;;20.01;46.92;100029.59;4351915;32;34207;-80
2023/05/28 05:02:57;;;;;;;;;;;;;;;20.10;46.62;100025.31;4362812;32;33550;-80
2023/05/28 05:05:31;;;;;;;;;;;;;;;20.29;46.18;100022.03;4352664;32;32477;-80
2023/05/28 05:08:03;;;;;;;;;;;;;;;20.12;46.86;100026.87;4339746;32;33671;-80
2023/05/28 05:10:32;;;;;;;;;;;;;;;20.20;44.42;100028.97;4352284;32;33867;-80
2023/05/28 05:13:04;;;;;;;;;;;;;;;20.43;44.15;100025.28;4353084;32;33835;-79
2023/05/28 05:15:33;;;;;;;;;;;;;;;20.70;44.31;100024.91;4352013;32;34888;-81
2023/05/28 05:18:06;;;;;;;;;;;;;;;20.49;42.93;100029.31;4352707;32;33245;-81
2023/05/28 05:20:34;;;;;;;;;;;;;;;20.69;43.00;100033.06;4366230;32;32878;-81
2023/05/28 05:23:11;;;;;;;;;;;;;;;20.56;42.17;100030.56;4352535;32;33586;-81
2023/05/28 05:25:45;;;;;;;;;;;;;;;20.96;40.93;100025.41;4349814;32;35584;-80
2023/05/28 05:28:18;;;;;;;;;;;;;;;21.09;40.56;100016.34;4354402;32;33970;-81
2023/05/28 05:30:47;;;;;;;;;;;;;;;21.44;40.51;100022.28;4352050;32;34036;-80
2023/05/28 05:33:15;;;;;;;;;;;;;;;21.33;40.58;100018.81;4352967;32;35865;-81
2023/05/28 05:35:49;;;;;;;;;;;;;;;21.54;39.90;100019.66;4340592;33;34622;-81
2023/05/28 05:38:18;;;;;;;;;;;;;;;21.34;39.20;100029.44;4353114;32;33825;-81
2023/05/28 05:40:49;;;;;;;;;;;;;;;21.56;39.68;100020.41;4350619;32;35119;-81
2023/05/28 05:43:17;;;;;;;;;;;;;;;21.05;40.12;100026.50;4350857;32;33497;-81
2023/05/28 05:45:48;;;;;;;;;;;;;;;21.42;40.08;100018.03;4353601;32;34980;-81
2023/05/28 05:48:16;;;;;;;;;;;;;;;21.89;39.53;100013.09;4352017;32;30411;-81
2023/05/28 05:50:50;;;;;;;;;;;;;;;22.22;38.56;100012.84;4351954;32;34206;-81
2023/05/28 05:53:20;;;;;;;;;;;;;;;22.29;37.93;100004.19;4348829;32;33507;-81
2023/05/28 05:55:50;;;;;;;;;;;;;;;22.23;38.41;100009.16;4351040;32;34181;-82
2023/05/28 05:58:22;;;;;;;;;;;;;;;22.40;38.59;100009.47;4352581;32;33288;-81
2023/05/28 06:00:51;;;;;;;;;;;;;;;22.71;37.61;100013.78;4353495;32;33723;-81
2023/05/28 06:03:23;;;;;;;;;;;;;;;22.82;39.31;100015.50;4376628;32;34311;-81
2023/05/28 06:08:39;;;;;;;;;;;;;;;22.79;36.80;100013.09;4359002;32;35103;-81
2023/05/28 06:11:12;;;;;;;;;;;;;;;23.13;35.78;100018.09;4365671;32;34197;-81
2023/05/28 06:13:43;;;;;;;;;;;;;;;23.18;36.00;100021.22;4359689;32;35450;-81
2023/05/28 06:16:17;;;;;;;;;;;;;;;23.02;36.42;100016.37;4351774;32;34096;-81
2023/05/28 06:18:54;;;;;;;;;;;;;;;22.45;37.94;100031.44;4353848;32;34110;-81
2023/05/28 06:21:26;;;;;;;;;;;;;;;22.90;36.52;100012.16;4353422;32;35142;-81
2023/05/28 06:23:56;;;;;;;;;;;;;;;23.36;34.71;100024.03;4366816;32;35526;-81
2023/05/28 06:26:26;;;;;;;;;;;;;;;23.35;34.70;100028.56;4351683;32;34481;-80
2023/05/28 06:28:59;;;;;;;;;;;;;;;23.54;34.55;100024.16;4352940;32;32705;-80
2023/05/28 06:31:28;;;;;;;;;;;;;;;23.17;36.07;100028.47;4353708;32;35291;-80
2023/05/28 06:34:01;;;;;;;;;;;;;;;23.27;35.92;100023.06;4365736;32;34638;-79
2023/05/28 06:36:30;;;;;;;;;;;;;;;23.59;33.13;100033.50;4340913;32;33665;-80
2023/05/28 06:39:07;;;;;;;;;;;;;;;23.42;33.94;100023.47;4351751;32;33609;-80
2023/05/28 06:41:42;;;;;;;;;;;;;;;23.22;35.49;100031.56;4367985;32;34786;-81
2023/05/28 06:44:17;;;;;;;;;;;;;;;23.28;33.88;100032.84;4348748;32;33616;-80
2023/05/28 06:46:45;;;;;;;;;;;;;;;23.35;35.28;100030.41;4354825;32;34404;-81
2023/05/28 06:49:17;;;;;;;;;;;;;;;23.07;35.04;100035.66;4334954;32;33554;-80
2023/05/28 06:51:51;;;;;;;;;;;;;;;23.19;36.23;100036.38;4365323;32;34073;-81
2023/05/28 06:54:19;;;;;;;;;;;;;;;23.50;35.18;100037.09;4368024;32;33870;-80
2023/05/28 06:56:48;;;;;;;;;;;;;;;23.51;34.98;100034.22;4340794;32;33167;-80
2023/05/28 06:59:26;;;;;;;;;;;;;;;23.17;35.16;100025.75;4345553;32;33388;-80
2023/05/28 07:02:12;;;;;;;;;;;;;;;23.08;34.30;100036.53;4373052;32;35602;-81
2023/05/28 07:04:40;;;;;;;;;;;;;;;22.92;35.65;100037.06;4379190;32;32983;-80
2023/05/28 07:07:15;;;;;;;;;;;;;;;23.23;34.58;100024.34;4366714;32;33904;-81
2023/05/28 07:09:49;;;;;;;;;;;;;;;22.99;34.68;100027.47;4364054;32;33430;-81
2023/05/28 07:12:17;;;;;;;;;;;;;;;23.32;34.87;100028.03;4368011;32;34645;-81
2023/05/28 07:14:53;;;;;;;;;;;;;;;22.88;36.00;100035.62;4366045;32;34018;-81
2023/05/28 07:17:27;;;;;;;;;;;;;;;23.01;36.17;100030.84;4364929;32;34176;-80
2023/05/28 07:19:58;;;;;;;;;;;;;;;22.81;36.31;100031.78;4368245;32;33578;-81
2023/05/28 07:22:38;;;;;;;;;;;;;;;23.08;34.70;100032.00;4367203;32;33934;-81
2023/05/28 07:25:20;;;;;;;;;;;;;;;23.47;34.94;100029.28;4353703;32;33199;-80
2023/05/28 07:27:48;;;;;;;;;;;;;;;23.23;36.10;100035.97;4366785;32;34577;-81
2023/05/28 07:30:17;;;;;;;;;;;;;;;23.33;35.59;100038.66;4354785;32;32023;-81
2023/05/28 07:32:45;;;;;;;;;;;;;;;23.45;34.83;100042.03;4369653;32;33657;-81
2023/05/28 07:35:16;;;;;;;;;;;;;;;23.61;35.13;100034.22;4367641;32;35206;-81
2023/05/28 07:37:50;;;;;;;;;;;;;;;23.60;34.88;100023.59;4368812;32;34084;-81
2023/05/28 07:40:18;;;;;;;;;;;;;;;24.12;34.88;100027.56;4353014;32;32842;-80
2023/05/28 07:42:49;;;;;;;;;;;;;;;24.33;33.57;100024.63;4368137;32;32963;-81
2023/05/28 07:45:18;;;;;;;;;;;;;;;23.72;34.85;100028.69;4366301;32;35010;-81
2023/05/28 07:47:49;;;;;;;;;;;;;;;23.84;34.47;100028.53;4358991;32;34525;-80
2023/05/28 07:50:28;;;;;;;;;;;;;;;23.86;34.86;100021.13;4354647;32;32911;-81
2023/05/28 07:52:56;;;;;;;;;;;;;;;24.09;33.34;100022.47;4369633;32;34150;-81
2023/05/28 07:55:28;;;;;;;;;;;;;;;23.90;33.99;100023.37;4352272;32;34116;-81
2023/05/28 07:57:58;;;;;;;;;;;;;;;24.22;33.38;100022.97;4367753;32;34449;-81
2023/05/28 08:00:32;;;;;;;;;;;;;;;24.45;34.07;100018.06;4352590;32;32146;-81
2023/05/28 08:03:04;;;;;;;;;;;;;;;24.90;32.18;100010.94;4350086;32;36078;-81
2023/05/28 08:05:41;;;;;;;;;;;;;;;24.56;32.69;100018.84;4341455;32;33295;-80
2023/05/28 08:10:53;;;;;;;;;;;;;;;24.65;33.52;100013.37;4353344;32;33790;-81
2023/05/28 08:13:21;;;;;;;;;;;;;;;24.88;33.25;100013.81;4349796;32;33359;-80
2023/05/28 08:15:50;;;;;;;;;;;;;;;24.71;33.24;100012.78;4346987;32;33586;-81
2023/05/28 08:18:25;;;;;;;;;;;;;;;24.85;33.01;100018.66;4362509;32;33562;-81
2023/05/28 08:23:40;;;;;;;;;;;;;;;25.37;32.98;99998.03;4347564;32;33228;-81
2023/05/28 08:26:11;;;;;;;;;;;;;;;25.13;32.48;100001.41;4365888;32;34029;-81
2023/05/28 08:28:52;;;;;;;;;;;;;;;25.13;32.77;100003.25;4350607;32;34552;-81
2023/05/28 08:31:26;;;;;;;;;;;;;;;25.13;32.57;99992.44;4347402;32;33198;-81
2023/05/28 08:33:57;;;;;;;;;;;;;;;25.09;32.94;100000.00;4350308;32;34122;-81
2023/05/28 08:36:25;;;;;;;;;;;;;;;25.49;32.46;99990.50;4336771;32;33860;-81
2023/05/28 08:39:04;;;;;;;;;;;;;;;25.17;33.78;99994.69;4348964;32;35055;-81
2023/05/28 08:41:39;;;;;;;;;;;;;;;25.62;33.26;99990.94;4342674;32;32782;-81
2023/05/28 08:44:07;;;;;;;;;;;;;;;26.17;32.35;99978.94;4348439;32;34191;-81
2023/05/28 08:46:40;;;;;;;;;;;;;;;25.74;32.94;99981.56;4351197;32;35261;-83
2023/05/28 08:49:20;;;;;;;;;;;;;;;25.76;32.97;99982.28;4347127;32;33669;-81
2023/05/28 08:51:49;;;;;;;;;;;;;;;25.29;34.34;99973.66;4361603;32;34420;-82
2023/05/28 08:54:23;;;;;;;;;;;;;;;25.70;33.37;99972.06;4364038;32;34941;-81
2023/05/28 08:59:31;;;;;;;;;;;;;;;26.69;31.92;99971.50;4344684;32;34635;-81
2023/05/28 09:02:04;;;;;;;;;;;;;;;26.64;30.43;99976.56;4348473;32;31644;-82
2023/05/28 09:04:32;;;;;;;;;;;;;;;26.65;31.49;99970.13;4348374;32;33991;-81
2023/05/28 09:07:07;;;;;;;;;;;;;;;26.38;34.20;99964.94;4348257;32;34260;-82
2023/05/28 09:09:37;;;;;;;;;;;;;;;26.66;31.32;99970.97;4347920;32;34169;-83
2023/05/28 09:12:11;;;;;;;;;;;;;;;26.58;31.87;99970.94;4360229;32;34765;-82
2023/05/28 09:14:41;;;;;;;;;;;;;;;26.26;31.84;99962.56;4336058;32;33163;-82
2023/05/28 09:19:54;;;;;;;;;;;;;;;26.69;31.25;99957.97;4348592;32;34526;-82
2023/05/28 09:22:22;;;;;;;;;;;;;;;26.45;31.32;99949.78;4348293;32;33287;-82
2023/05/28 09:25:01;;;;;;;;;;;;;;;26.75;32.57;99957.28;4348022;32;33621;-82
2023/05/28 09:30:19;;;;;;;;;;;;;;;26.65;31.31;99951.16;4360164;32;34851;-82
2023/05/28 09:32:55;;;;;;;;;;;;;;;26.22;33.00;99958.47;4341028;32;33022;-82
2023/05/28 09:35:26;;;;;;;;;;;;;;;26.44;31.98;99961.59;4360178;32;34624;-83
2023/05/28 09:38:07;;;;;;;;;;;;;;;26.75;33.25;99951.00;4359535;32;34302;-82
2023/05/28 09:40:42;;;;;;;;;;;;;;;26.85;31.19;99942.72;4335781;32;33431;-82
2023/05/28 09:43:11;;;;;;;;;;;;;;;27.39;31.74;99938.47;4346812;32;33576;-82
2023/05/28 09:45:40;;;;;;;;;;;;;;;27.77;30.09;99942.34;4360590;32;33805;-82
2023/05/28 09:50:49;;;;;;;;;;;;;;;27.73;28.29;99943.72;4348704;32;35054;-82
2023/05/28 09:53:23;;;;;;;;;;;;;;;27.61;29.21;99942.34;4335629;32;33641;-82
2023/05/28 09:55:51;;;;;;;;;;;;;;;27.15;29.64;99931.22;4359160;32;33743;-82
2023/05/28 09:58:20;;;;;;;;;;;;;;;27.80;29.70;99933.84;4358803;32;34974;-82
2023/05/28 10:00:49;;;;;;;;;;;;;;;28.25;28.19;99928.75;4351762;32;33305;-81
2023/05/28 10:03:19;;;;;;;;;;;;;;;27.84;30.68;99931.63;4364524;32;33215;-82
2023/05/28 10:05:52;;;;;;;;;;;;;;;27.75;29.48;99933.53;4361835;32;32954;-82
2023/05/28 10:08:21;;;;;;;;;;;;;;;27.90;29.62;99930.06;4365989;32;34346;-82
2023/05/28 10:10:56;;;;;;;;;;;;;;;28.55;28.91;99922.47;4364527;32;35028;-82
2023/05/28 10:13:25;;;;;;;;;;;;;;;28.75;28.70;99920.09;4366559;32;33993;-82
2023/05/28 10:16:00;;;;;;;;;;;;;;;29.06;27.60;99911.06;4342561;32;32703;-81
2023/05/28 10:18:35;;;;;;;;;;;;;;;28.93;28.09;99910.81;4368835;32;35473;-81
2023/05/28 10:21:05;;;;;;;;;;;;;;;28.80;28.02;99906.81;4366937;32;33600;-82
2023/05/28 10:26:13;;;;;;;;;;;;;;;29.11;26.75;99908.63;4367608;32;33798;-82
2023/05/28 10:28:43;;;;;;;;;;;;;;;28.24;27.31;99917.00;4353125;32;33688;-82
2023/05/28 10:31:15;;;;;;;;;;;;;;;28.19;27.89;99913.97;4366248;32;32686;-82
2023/05/28 10:33:47;;;;;;;;;;;;;;;28.15;28.16;99907.22;4366765;32;33596;-82
2023/05/28 10:36:16;;;;;;;;;;;;;;;28.54;27.53;99901.75;4368178;32;33887;-81
2023/05/28 10:38:51;;;;;;;;;;;;;;;28.40;27.13;99898.97;4366003;32;34030;-81
2023/05/28 10:46:50;;;;;;;;;;;;;;;28.31;26.79;99885.41;4363207;32;33841;-82
2023/05/28 10:49:20;;;;;;;;;;;;;;;28.45;28.15;99891.12;4367981;32;33931;-82
2023/05/28 10:51:56;;;;;;;;;;;;;;;28.04;28.26;99894.06;4356042;32;34770;-82
2023/05/28 10:54:37;;;;;;;;;;;;;;;28.42;27.36;99881.47;4367348;32;34861;-82
2023/05/28 10:57:12;;;;;;;;;;;;;;;28.40;26.84;99890.84;4366063;32;34011;-83
2023/05/28 10:59:45;;;;;;;;;;;;;;;28.35;27.38;99887.81;4368382;32;34313;-83
2023/05/28 11:02:36;;;;;;;;;;;;;;;28.72;26.97;99884.28;4365589;32;34479;-83
2023/05/28 11:05:11;;;;;;;;;;;;;;;28.08;26.34;99888.09;4345236;32;33353;-83
2023/05/28 11:07:40;;;;;;;;;;;;;;;28.15;27.82;99879.22;4369662;32;33494;-83
2023/05/28 11:10:09;;;;;;;;;;;;;;;28.04;27.27;99878.59;4365517;32;35204;-83
2023/05/28 11:12:38;;;;;;;;;;;;;;;28.50;26.88;99867.00;4359906;32;34448;-83
2023/05/28 11:15:08;;;;;;;;;;;;;;;28.64;27.51;99862.66;4363492;32;32398;-83
2023/05/28 11:17:40;;;;;;;;;;;;;;;28.71;27.41;99869.03;4365975;32;33929;-83
2023/05/28 11:20:25;;;;;;;;;;;;;;;28.64;26.10;99874.34;4361232;32;33429;-83
2023/05/28 11:25:34;;;;;;;;;;;;;;;28.63;27.21;99867.25;4364832;32;34895;-83
2023/05/28 11:28:09;;;;;;;;;;;;;;;28.75;26.85;99859.47;4367642;32;35846;-83
2023/05/28 11:30:39;;;;;;;;;;;;;;;28.87;25.83;99851.75;4356153;32;34316;-82
2023/05/28 11:33:15;;;;;;;;;;;;;;;29.09;27.48;99848.16;4364426;32;35934;-83
2023/05/28 11:35:43;;;;;;;;;;;;;;;28.84;26.57;99842.91;4366319;32;33650;-82
2023/05/28 11:38:19;;;;;;;;;;;;;;;29.18;27.06;99838.88;4366045;32;34004;-82
2023/05/28 11:41:01;;;;;;;;;;;;;;;28.92;27.27;99838.44;4368255;32;34722;-82
2023/05/28 11:43:30;;;;;;;;;;;;;;;28.94;26.43;99842.66;4370432;32;35065;-82
2023/05/28 11:45:59;;;;;;;;;;;;;;;29.01;25.37;99838.22;4364024;32;32951;-81
2023/05/28 11:48:36;;;;;;;;;;;;;;;28.45;27.57;99837.66;4367853;32;33703;-81
2023/05/28 11:51:10;;;;;;;;;;;;;;;28.87;28.34;99830.00;4366943;32;35554;-82
2023/05/28 11:53:44;;;;;;;;;;;;;;;29.27;26.32;99832.31;4341207;32;842809;-83
2023/05/28 11:56:13;;;;;;;;;;;;;;;29.25;25.39;99834.41;4368870;32;33001;-82
2023/05/28 11:58:52;;;;;;;;;;;;;;;29.33;27.37;99823.41;4365716;32;31857;-82
2023/05/28 12:01:28;;;;;;;;;;;;;;;29.32;26.34;99827.16;4361848;32;34830;-82
2023/05/28 12:04:05;;;;;;;;;;;;;;;29.15;25.93;99827.53;4360793;32;34331;-82
2023/05/28 12:06:49;;;;;;;;;;;;;;;28.96;27.43;99828.91;4348733;32;33609;-82
2023/05/28 12:09:18;;;;;;;;;;;;;;;28.91;27.29;99825.87;4359302;32;34704;-83
2023/05/28 12:12:11;;;;;;;;;;;;;;;28.99;25.50;99825.81;4348086;32;34044;-83
2023/05/28 12:14:45;;;;;;;;;;;;;;;28.15;28.61;99817.63;4348089;32;34463;-83
2023/05/28 12:17:13;;;;;;;;;;;;;;;28.87;28.20;99814.53;4361072;32;32044;-83
2023/05/28 12:22:19;;;;;;;;;;;;;;;29.08;26.70;99817.41;4341935;32;33436;-83
2023/05/28 12:24:48;;;;;;;;;;;;;;;29.21;29.48;99811.31;4348441;32;34902;-83
2023/05/28 12:27:18;;;;;;;;;;;;;;;29.19;26.50;99824.25;4347958;32;36088;-83
2023/05/28 12:29:49;;;;;;;;;;;;;;;29.18;27.46;99821.72;4336511;32;33210;-84
2023/05/28 12:32:21;;;;;;;;;;;;;;;29.06;27.89;99815.91;4353187;32;34586;-83
2023/05/28 12:37:33;;;;;;;;;;;;;;;29.02;27.29;99811.88;4349935;32;33546;-83
2023/05/28 12:40:06;;;;;;;;;;;;;;;28.99;27.72;99812.25;4359943;32;34466;-83
2023/05/28 12:42:42;;;;;;;;;;;;;;;29.06;26.84;99818.63;4361656;32;35806;-83
2023/05/28 12:45:11;;;;;;;;;;;;;;;28.23;27.91;99814.88;4348563;32;33774;-81
2023/05/28 12:47:43;;;;;;;;;;;;;;;27.83;28.30;99817.84;4348919;32;32363;-84
2023/05/28 12:50:11;;;;;;;;;;;;;;;28.51;27.04;99801.59;4348582;32;33916;-83
2023/05/28 12:52:39;;;;;;;;;;;;;;;28.52;28.25;99805.16;4359892;32;33704;-82
2023/05/28 12:55:14;;;;;;;;;;;;;;;28.58;26.59;99802.59;4348591;32;34456;-82
2023/05/28 12:57:48;;;;;;;;;;;;;;;29.15;27.46;99806.62;4361702;32;32797;-82
2023/05/28 13:00:24;;;;;;;;;;;;;;;29.00;27.00;99811.19;4347460;32;34348;-82
2023/05/28 13:02:53;;;;;;;;;;;;;;;29.15;26.16;99800.34;4353421;32;33531;-82
2023/05/28 13:05:22;;;;;;;;;;;;;;;28.54;26.36;99805.84;4353170;32;34330;-82
2023/05/28 13:07:56;;;;;;;;;;;;;;;28.86;25.86;99801.13;4353263;32;34262;-82
2023/05/28 13:10:30;;;;;;;;;;;;;;;28.74;27.44;99793.44;4347323;32;34223;-82
2023/05/28 13:12:59;;;;;;;;;;;;;;;29.07;27.32;99793.97;4352001;32;34112;-83
2023/05/28 13:15:28;;;;;;;;;;;;;;;28.92;26.79;99794.97;4347350;32;34006;-82
2023/05/28 13:17:57;;;;;;;;;;;;;;;28.63;26.81;99791.16;4354181;32;33266;-82
2023/05/28 13:20:26;;;;;;;;;;;;;;;28.53;27.54;99790.56;4344835;32;33206;-82
2023/05/28 13:22:56;;;;;;;;;;;;;;;28.83;26.71;99786.88;4354148;32;34124;-82
2023/05/28 13:25:28;;;;;;;;;;;;;;;28.37;26.74;99791.53;4351006;32;34612;-82
2023/05/28 13:27:58;;;;;;;;;;;;;;;28.62;26.41;99794.87;4351180;32;34349;-82
2023/05/28 13:33:23;;;;;;;;;;;;;;;28.28;27.58;99785.31;4350842;32;33831;-82
2023/05/28 13:35:59;;;;;;;;;;;;;;;28.29;28.41;99770.69;4350770;32;34841;-82